Time;durP1;ratioP1;P1;durP2;ratioP2;P2;SDS_P1;SDS_P2;PMS_P1;PMS_P2;Temp;Humidity;BMP_temperature;BMP_pressure;BME280_temperature;BME280_humidity;BME280_pressure;Samples;Min_cycle;Max_cycle;Signal;HPM_P1;HPM_P2
2022/10/11 00:01:18;;;;;;;;;;;18.00;99.60;;;;;;4969983;28;20322;-81
2022/10/11 00:03:45;;;;;;;;;;;18.00;99.20;;;;;;4969204;28;19916;-81
2022/10/11 00:06:11;;;;;;;;;;;18.10;99.50;;;;;;4970439;28;20005;-79
2022/10/11 00:08:38;;;;;;;;;;;18.20;99.10;;;;;;4970579;28;19914;-79
2022/10/11 00:11:06;;;;;;;;;;;18.30;99.30;;;;;;4970506;28;19910;-79
2022/10/11 00:13:33;;;;;;;;;;;18.40;99.40;;;;;;4970409;28;19914;-81
2022/10/11 00:16:00;;;;;;;;;;;18.50;98.40;;;;;;5071534;28;19916;-79
2022/10/11 00:18:27;;;;;;;;;;;18.60;98.20;;;;;;5071355;28;19920;-79
2022/10/11 00:21:12;;;;;;;;;;;18.80;97.90;;;;;;5071550;28;20314;-80
2022/10/11 00:23:40;;;;;;;;;;;18.90;97.30;;;;;;5071455;28;20311;-82
2022/10/11 00:26:07;;;;;;;;;;;19.20;97.50;;;;;;5071461;28;19958;-81
2022/10/11 00:28:34;;;;;;;;;;;19.30;97.00;;;;;;5071183;28;19999;-81
2022/10/11 00:31:01;;;;;;;;;;;19.40;97.10;;;;;;5071012;28;19948;-81
2022/10/11 00:33:27;;;;;;;;;;;19.40;96.30;;;;;;5071270;28;19981;-83
2022/10/11 00:35:54;;;;;;;;;;;19.30;96.00;;;;;;5071365;28;20022;-81
2022/10/11 00:38:21;;;;;;;;;;;19.20;95.50;;;;;;5086473;28;19915;-81
2022/10/11 00:40:47;;;;;;;;;;;19.20;96.40;;;;;;5071047;28;20408;-83
2022/10/11 00:43:18;;;;;;;;;;;19.20;95.90;;;;;;5071643;28;19909;-80
2022/10/11 00:45:51;;;;;;;;;;;19.20;95.10;;;;;;5071102;28;20220;-80
2022/10/11 00:48:22;;;;;;;;;;;19.10;95.70;;;;;;5071018;28;20272;-80
2022/10/11 00:50:49;;;;;;;;;;;19.10;95.70;;;;;;5070900;28;19919;-81
2022/10/11 00:53:16;;;;;;;;;;;19.10;95.60;;;;;;5086858;28;19993;-79
2022/10/11 00:55:50;;;;;;;;;;;19.20;95.40;;;;;;5073172;28;19978;-82
2022/10/11 00:58:18;;;;;;;;;;;19.10;95.50;;;;;;5071310;28;19916;-81
2022/10/11 01:00:45;;;;;;;;;;;19.10;95.50;;;;;;5071026;28;20353;-82
2022/10/11 01:03:12;;;;;;;;;;;19.10;95.50;;;;;;5086234;28;20599;-82
2022/10/11 01:05:39;;;;;;;;;;;19.20;95.90;;;;;;5071048;28;19908;-80
2022/10/11 01:08:06;;;;;;;;;;;19.40;95.80;;;;;;5071173;28;19996;-81
2022/10/11 01:10:33;;;;;;;;;;;19.40;96.00;;;;;;5071167;28;19909;-80
2022/10/11 01:13:17;;;;;;;;;;;19.40;96.00;;;;;;5070977;28;19913;-79
2022/10/11 01:15:55;;;;;;;;;;;19.50;95.90;;;;;;5072931;28;19920;-78
2022/10/11 01:18:27;;;;;;;;;;;19.70;95.80;;;;;;5074647;28;20381;-77
2022/10/11 01:20:56;;;;;;;;;;;19.80;95.30;;;;;;5074686;28;19948;-81
2022/10/11 01:23:32;;;;;;;;;;;20.00;96.00;;;;;;5074706;28;19909;-80
2022/10/11 01:26:16;;;;;;;;;;;20.30;95.40;;;;;;5074279;28;19908;-80
2022/10/11 01:28:52;;;;;;;;;;;20.70;94.90;;;;;;5074830;28;19908;-80
2022/10/11 01:31:25;;;;;;;;;;;20.80;94.40;;;;;;5074663;28;19916;-79
2022/10/11 01:34:24;;;;;;;;;;;20.90;94.10;;;;;;5073638;28;19995;-77
2022/10/11 01:36:56;;;;;;;;;;;21.10;94.70;;;;;;5029363;28;19908;-78
2022/10/11 01:39:43;;;;;;;;;;;21.20;94.20;;;;;;5074259;28;19915;-80
2022/10/11 01:42:11;;;;;;;;;;;21.30;93.80;;;;;;5074407;28;20314;-76
2022/10/11 01:44:38;;;;;;;;;;;21.40;93.60;;;;;;5074264;28;19941;-78
2022/10/11 01:47:05;;;;;;;;;;;21.70;93.30;;;;;;5074203;28;19908;-80
2022/10/11 01:49:32;;;;;;;;;;;21.80;93.80;;;;;;5074187;28;19966;-79
2022/10/11 01:52:00;;;;;;;;;;;21.70;92.50;;;;;;5073850;28;19948;-80
2022/10/11 01:54:43;;;;;;;;;;;21.30;93.00;;;;;;5074044;28;19916;-82
2022/10/11 01:57:10;;;;;;;;;;;21.10;93.30;;;;;;5073947;28;19944;-78
2022/10/11 01:59:45;;;;;;;;;;;20.80;93.90;;;;;;5073367;28;19928;-79
2022/10/11 02:02:30;;;;;;;;;;;20.80;93.90;;;;;;5073706;28;19931;-79
2022/10/11 02:05:05;;;;;;;;;;;20.50;94.40;;;;;;5073781;28;19908;-80
2022/10/11 02:07:49;;;;;;;;;;;20.10;94.20;;;;;;5073508;28;19909;-80
2022/10/11 02:10:25;;;;;;;;;;;20.10;93.90;;;;;;5073231;28;20376;-80
2022/10/11 02:12:58;;;;;;;;;;;20.20;94.10;;;;;;5073556;28;19948;-79
2022/10/11 02:15:25;;;;;;;;;;;20.40;94.30;;;;;;5073920;28;19912;-80
2022/10/11 02:17:56;;;;;;;;;;;20.60;93.50;;;;;;5073800;28;19920;-77
2022/10/11 02:20:24;;;;;;;;;;;20.60;93.20;;;;;;5073832;28;19908;-80
2022/10/11 02:22:54;;;;;;;;;;;20.60;93.70;;;;;;5073684;28;20279;-79
2022/10/11 02:25:23;;;;;;;;;;;20.80;93.50;;;;;;5073386;28;20285;-79
2022/10/11 02:27:51;;;;;;;;;;;21.00;93.20;;;;;;5072860;28;19913;-80
2022/10/11 02:30:17;;;;;;;;;;;20.90;92.60;;;;;;5073898;28;19961;-79
2022/10/11 02:32:45;;;;;;;;;;;21.00;93.20;;;;;;5073589;28;19912;-80
2022/10/11 02:35:13;;;;;;;;;;;20.90;92.50;;;;;;5073393;28;19916;-80
2022/10/11 02:37:42;;;;;;;;;;;20.80;92.60;;;;;;5073570;28;20307;-84
2022/10/11 02:40:19;;;;;;;;;;;20.80;92.80;;;;;;5073427;28;19978;-81
2022/10/11 02:42:52;;;;;;;;;;;20.80;92.50;;;;;;5073163;28;20011;-79
2022/10/11 02:45:28;;;;;;;;;;;20.80;93.00;;;;;;5072775;28;20074;-79
2022/10/11 02:47:56;;;;;;;;;;;20.70;92.70;;;;;;5072924;28;19908;-80
2022/10/11 02:50:23;;;;;;;;;;;20.70;92.90;;;;;;5072835;28;20265;-80
2022/10/11 02:52:49;;;;;;;;;;;20.70;92.00;;;;;;5072842;28;19931;-80
2022/10/11 02:55:16;;;;;;;;;;;20.60;92.60;;;;;;5073230;28;19917;-80
2022/10/11 02:57:42;;;;;;;;;;;20.60;93.10;;;;;;5072974;28;19909;-80
2022/10/11 03:00:10;;;;;;;;;;;20.90;93.50;;;;;;5072640;28;19913;-81
2022/10/11 03:02:36;;;;;;;;;;;21.50;92.60;;;;;;5073342;28;19910;-79
2022/10/11 03:05:03;;;;;;;;;;;21.60;92.00;;;;;;5087972;28;19946;-81
2022/10/11 03:07:30;;;;;;;;;;;21.40;91.90;;;;;;5072605;28;19912;-80
2022/10/11 03:09:56;;;;;;;;;;;21.30;92.50;;;;;;5073011;28;20276;-80
2022/10/11 03:12:23;;;;;;;;;;;21.30;92.30;;;;;;5072102;28;19930;-80
2022/10/11 03:14:50;;;;;;;;;;;21.10;92.30;;;;;;5071729;28;20055;-80
2022/10/11 03:17:16;;;;;;;;;;;21.40;91.90;;;;;;5072106;28;19923;-77
2022/10/11 03:19:43;;;;;;;;;;;21.80;92.10;;;;;;5087958;28;19969;-80
2022/10/11 03:22:09;;;;;;;;;;;21.90;91.20;;;;;;5072622;28;19969;-80
2022/10/11 03:24:36;;;;;;;;;;;21.70;92.10;;;;;;5011926;28;20378;-79
2022/10/11 03:27:03;;;;;;;;;;;22.30;92.10;;;;;;4967477;28;20142;-82
2022/10/11 03:29:29;;;;;;;;;;;23.10;90.50;;;;;;4964813;28;19962;-79
2022/10/11 03:31:56;;;;;;;;;;;24.00;89.40;;;;;;4965542;28;19910;-78
2022/10/11 03:34:22;;;;;;;;;;;24.80;87.30;;;;;;4965712;28;19919;-84
2022/10/11 03:36:49;;;;;;;;;;;25.40;85.20;;;;;;4967376;28;19924;-81
2022/10/11 03:39:16;;;;;;;;;;;25.20;83.90;;;;;;4962595;28;19911;-81
2022/10/11 03:41:42;;;;;;;;;;;24.80;84.60;;;;;;4963637;28;19976;-83
2022/10/11 03:44:09;;;;;;;;;;;24.60;85.20;;;;;;4964645;28;19914;-82
2022/10/11 03:46:36;;;;;;;;;;;24.70;86.60;;;;;;4966346;28;19918;-83
2022/10/11 03:49:02;;;;;;;;;;;24.90;85.00;;;;;;4964522;28;19917;-80
2022/10/11 03:51:30;;;;;;;;;;;25.30;83.30;;;;;;4976151;28;20409;-82
2022/10/11 03:53:57;;;;;;;;;;;25.20;82.70;;;;;;4974219;28;20021;-85
2022/10/11 03:56:24;;;;;;;;;;;25.70;82.90;;;;;;4968429;28;20270;-82
2022/10/11 03:58:51;;;;;;;;;;;26.40;81.00;;;;;;4966950;28;19910;-83
2022/10/11 04:01:17;;;;;;;;;;;26.80;78.20;;;;;;4963698;28;19920;-83
2022/10/11 04:03:44;;;;;;;;;;;26.40;77.70;;;;;;4976557;28;20025;-80
2022/10/11 04:06:11;;;;;;;;;;;25.60;79.50;;;;;;4972462;28;19917;-82
2022/10/11 04:08:37;;;;;;;;;;;25.20;81.30;;;;;;4985114;28;20321;-79
2022/10/11 04:11:04;;;;;;;;;;;25.30;81.40;;;;;;4967279;28;19910;-78
2022/10/11 04:13:31;;;;;;;;;;;24.60;82.10;;;;;;4978653;28;19918;-75
2022/10/11 04:15:57;;;;;;;;;;;24.10;82.90;;;;;;4972791;28;20339;-77
2022/10/11 04:18:24;;;;;;;;;;;23.40;84.00;;;;;;4974094;28;19979;-82
2022/10/11 04:20:51;;;;;;;;;;;22.90;85.70;;;;;;4965006;28;19910;-74
2022/10/11 04:23:17;;;;;;;;;;;22.70;85.60;;;;;;4962034;28;19910;-83
2022/10/11 04:25:44;;;;;;;;;;;22.40;87.50;;;;;;4969229;28;19914;-81
2022/10/11 04:28:11;;;;;;;;;;;22.20;87.80;;;;;;4984578;28;19910;-80
2022/10/11 04:30:37;;;;;;;;;;;22.10;88.00;;;;;;4969397;28;19914;-81
2022/10/11 04:33:04;;;;;;;;;;;22.00;88.20;;;;;;5000371;28;19960;-82
2022/10/11 04:35:31;;;;;;;;;;;22.20;87.50;;;;;;5021605;28;20638;-83
2022/10/11 04:37:57;;;;;;;;;;;22.00;87.50;;;;;;4973026;28;20347;-81
2022/10/11 04:40:24;;;;;;;;;;;21.90;87.80;;;;;;4989640;28;19915;-81
2022/10/11 04:42:52;;;;;;;;;;;21.70;89.10;;;;;;4982119;28;19910;-81
2022/10/11 04:45:19;;;;;;;;;;;21.40;89.60;;;;;;4961358;28;19910;-81
2022/10/11 04:47:46;;;;;;;;;;;21.40;88.80;;;;;;4989261;28;19965;-79
2022/10/11 04:50:13;;;;;;;;;;;21.00;89.60;;;;;;4988707;28;19914;-79
2022/10/11 04:52:40;;;;;;;;;;;20.90;90.30;;;;;;4986707;28;19914;-81
2022/10/11 04:55:06;;;;;;;;;;;20.60;90.70;;;;;;4980144;28;19922;-80
2022/10/11 04:57:33;;;;;;;;;;;20.70;91.20;;;;;;4979452;28;19911;-79
2022/10/11 05:00:00;;;;;;;;;;;20.80;90.80;;;;;;4987376;28;19918;-78
2022/10/11 05:02:27;;;;;;;;;;;20.80;90.90;;;;;;4987350;28;19918;-82
2022/10/11 05:04:53;;;;;;;;;;;20.70;91.20;;;;;;4978383;28;19910;-76
2022/10/11 05:07:20;;;;;;;;;;;20.50;90.90;;;;;;4967156;28;19917;-80
2022/10/11 05:09:47;;;;;;;;;;;20.30;91.20;;;;;;4956002;28;20009;-82
2022/10/11 05:12:13;;;;;;;;;;;20.00;91.30;;;;;;4978082;28;20000;-79
2022/10/11 05:14:40;;;;;;;;;;;20.00;91.50;;;;;;4972121;28;19926;-75
2022/10/11 05:17:07;;;;;;;;;;;19.90;91.60;;;;;;4971541;28;20440;-81
2022/10/11 05:19:33;;;;;;;;;;;20.10;91.60;;;;;;4971419;28;19910;-82
2022/10/11 05:22:00;;;;;;;;;;;20.00;91.10;;;;;;4975125;28;19910;-82
2022/10/11 05:24:26;;;;;;;;;;;20.00;91.40;;;;;;4959811;28;19922;-81
2022/10/11 05:26:53;;;;;;;;;;;20.00;91.00;;;;;;4960695;28;19910;-77
2022/10/11 05:29:20;;;;;;;;;;;20.00;90.80;;;;;;4971419;28;20371;-79
2022/10/11 05:31:46;;;;;;;;;;;20.20;91.70;;;;;;4977385;28;20499;-78
2022/10/11 05:34:13;;;;;;;;;;;20.40;91.10;;;;;;4975319;28;19952;-77
2022/10/11 05:36:40;;;;;;;;;;;20.60;90.70;;;;;;4977072;28;19911;-80
2022/10/11 05:39:06;;;;;;;;;;;20.70;89.70;;;;;;4962934;28;19918;-81
2022/10/11 05:41:33;;;;;;;;;;;21.00;90.00;;;;;;4974638;28;19910;-82
2022/10/11 05:44:00;;;;;;;;;;;22.00;90.40;;;;;;4974393;28;19937;-82
2022/10/11 05:46:26;;;;;;;;;;;23.10;85.70;;;;;;4962485;28;19925;-79
2022/10/11 05:48:53;;;;;;;;;;;23.70;83.50;;;;;;4960425;28;19918;-81
2022/10/11 05:51:20;;;;;;;;;;;24.60;81.40;;;;;;4974507;28;20370;-78
2022/10/11 05:53:46;;;;;;;;;;;25.70;80.30;;;;;;4965609;28;19925;-78
2022/10/11 05:56:17;;;;;;;;;;;25.60;77.20;;;;;;4951987;28;20318;-82
2022/10/11 05:58:44;;;;;;;;;;;25.90;76.00;;;;;;4970159;28;19971;-76
2022/10/11 06:01:18;;;;;;;;;;;25.50;76.10;;;;;;4969818;28;19910;-81
2022/10/11 06:03:44;;;;;;;;;;;25.70;77.10;;;;;;4971387;28;19918;-82
2022/10/11 06:06:11;;;;;;;;;;;25.80;75.30;;;;;;4969613;28;20086;-76
2022/10/11 06:08:38;;;;;;;;;;;26.30;75.80;;;;;;4970021;28;19915;-79
2022/10/11 06:11:10;;;;;;;;;;;26.40;76.80;;;;;;4974346;28;19914;-81
2022/10/11 06:13:37;;;;;;;;;;;26.80;75.90;;;;;;4980170;28;19915;-83
2022/10/11 06:16:04;;;;;;;;;;;26.70;76.30;;;;;;4966839;28;19910;-83
2022/10/11 06:18:30;;;;;;;;;;;27.10;75.20;;;;;;4969794;28;20391;-79
2022/10/11 06:20:57;;;;;;;;;;;26.60;74.50;;;;;;4980751;28;19963;-78
2022/10/11 06:23:24;;;;;;;;;;;26.30;75.50;;;;;;4963674;28;19922;-79
2022/10/11 06:25:58;;;;;;;;;;;26.20;76.00;;;;;;4969461;28;19915;-80
2022/10/11 06:28:25;;;;;;;;;;;26.10;75.30;;;;;;4968082;28;20412;-80
2022/10/11 06:30:52;;;;;;;;;;;25.70;76.40;;;;;;4981246;28;19987;-81
2022/10/11 06:33:19;;;;;;;;;;;25.70;75.50;;;;;;4981011;28;19918;-78
2022/10/11 06:35:45;;;;;;;;;;;25.40;75.70;;;;;;4968431;28;19910;-78
2022/10/11 06:38:12;;;;;;;;;;;25.00;76.80;;;;;;4969696;28;19981;-78
2022/10/11 06:40:39;;;;;;;;;;;24.90;77.40;;;;;;4969307;28;20406;-80
2022/10/11 06:43:05;;;;;;;;;;;25.00;77.60;;;;;;4998577;28;20276;-80
2022/10/11 06:45:32;;;;;;;;;;;25.00;77.70;;;;;;4996262;28;19956;-78
2022/10/11 06:48:00;;;;;;;;;;;25.00;78.40;;;;;;4969919;28;19979;-77
2022/10/11 06:50:27;;;;;;;;;;;24.90;77.70;;;;;;4987407;28;19909;-79
2022/10/11 06:52:53;;;;;;;;;;;24.50;79.10;;;;;;5049562;28;20370;-79
2022/10/11 06:55:20;;;;;;;;;;;24.30;79.40;;;;;;4984822;28;19957;-76
2022/10/11 06:57:47;;;;;;;;;;;24.20;80.50;;;;;;4989915;28;20359;-75
2022/10/11 07:00:13;;;;;;;;;;;24.00;80.80;;;;;;4988143;28;19918;-80
2022/10/11 07:02:40;;;;;;;;;;;23.90;80.90;;;;;;4982070;28;19917;-80
2022/10/11 07:05:11;;;;;;;;;;;23.80;81.80;;;;;;5013983;28;19919;-80
2022/10/11 07:07:38;;;;;;;;;;;23.40;82.30;;;;;;4970574;28;19942;-78
2022/10/11 07:10:04;;;;;;;;;;;22.70;84.40;;;;;;4970043;28;20282;-78
2022/10/11 07:12:31;;;;;;;;;;;22.40;85.00;;;;;;4969007;28;19917;-77
2022/10/11 07:14:58;;;;;;;;;;;22.10;86.40;;;;;;4976807;28;19991;-76
2022/10/11 07:17:24;;;;;;;;;;;21.80;86.90;;;;;;4969510;28;20358;-76
2022/10/11 07:19:51;;;;;;;;;;;21.40;87.20;;;;;;4969697;28;19917;-80
2022/10/11 07:22:18;;;;;;;;;;;21.00;89.10;;;;;;4967485;28;20278;-78
2022/10/11 07:24:44;;;;;;;;;;;20.70;88.80;;;;;;4970479;28;19917;-79
2022/10/11 07:27:11;;;;;;;;;;;20.40;89.40;;;;;;4969755;28;20363;-74
2022/10/11 07:29:37;;;;;;;;;;;20.00;90.40;;;;;;4969078;28;19916;-80
2022/10/11 07:32:05;;;;;;;;;;;19.70;90.60;;;;;;4968572;28;20362;-75
2022/10/11 07:34:32;;;;;;;;;;;19.30;91.40;;;;;;4969593;28;20016;-78
2022/10/11 07:36:59;;;;;;;;;;;19.10;91.60;;;;;;4970019;28;19910;-74
2022/10/11 07:39:25;;;;;;;;;;;19.00;91.90;;;;;;4964606;28;19918;-78
2022/10/11 07:41:52;;;;;;;;;;;18.80;92.00;;;;;;4975975;28;19959;-77
2022/10/11 07:44:18;;;;;;;;;;;18.70;92.40;;;;;;4967092;28;20251;-79
2022/10/11 07:46:45;;;;;;;;;;;18.60;92.50;;;;;;5032316;28;20439;-80
2022/10/11 07:49:11;;;;;;;;;;;18.50;93.00;;;;;;5059052;28;19918;-80
2022/10/11 07:51:38;;;;;;;;;;;18.50;93.30;;;;;;4959575;28;20417;-78
2022/10/11 07:54:05;;;;;;;;;;;18.50;93.10;;;;;;4972584;28;19973;-80
2022/10/11 07:56:31;;;;;;;;;;;18.40;93.00;;;;;;4970258;28;19925;-80
2022/10/11 07:59:00;;;;;;;;;;;18.30;93.10;;;;;;4960066;28;19915;-79
2022/10/11 08:01:27;;;;;;;;;;;18.20;93.70;;;;;;4965144;28;19910;-80
2022/10/11 08:03:55;;;;;;;;;;;18.20;94.10;;;;;;4972917;28;19911;-80
2022/10/11 08:06:24;;;;;;;;;;;18.10;94.20;;;;;;4974516;28;19914;-80
2022/10/11 08:08:51;;;;;;;;;;;18.00;94.30;;;;;;4968468;28;20348;-79
2022/10/11 08:11:36;;;;;;;;;;;17.90;94.30;;;;;;4968191;28;20040;-77
2022/10/11 08:14:07;;;;;;;;;;;17.90;94.70;;;;;;4975928;28;19914;-79
2022/10/11 08:16:34;;;;;;;;;;;17.80;95.10;;;;;;4978174;28;19926;-78
2022/10/11 08:19:02;;;;;;;;;;;17.80;95.30;;;;;;4958072;28;20317;-81
2022/10/11 08:21:28;;;;;;;;;;;17.70;95.30;;;;;;4959529;28;19910;-79
2022/10/11 08:23:55;;;;;;;;;;;17.70;95.20;;;;;;4985120;28;19910;-80
2022/10/11 08:26:23;;;;;;;;;;;17.60;95.40;;;;;;4978676;28;19922;-81
2022/10/11 08:28:50;;;;;;;;;;;17.70;95.60;;;;;;4968663;28;19921;-78
2022/10/11 08:31:16;;;;;;;;;;;17.70;95.60;;;;;;5035494;28;19917;-79
2022/10/11 08:33:43;;;;;;;;;;;17.60;95.70;;;;;;4971082;28;19914;-81
2022/10/11 08:36:11;;;;;;;;;;;17.60;95.80;;;;;;4978727;28;19918;-77
2022/10/11 08:38:38;;;;;;;;;;;17.50;96.10;;;;;;4968593;28;19922;-79
2022/10/11 08:41:20;;;;;;;;;;;17.50;96.10;;;;;;4967874;28;20388;-82
2022/10/11 08:44:05;;;;;;;;;;;17.50;96.70;;;;;;4974625;28;19918;-77
2022/10/11 08:46:33;;;;;;;;;;;17.50;96.70;;;;;;4956281;28;19926;-82
2022/10/11 08:49:01;;;;;;;;;;;17.40;97.00;;;;;;4950625;28;20295;-80
2022/10/11 08:51:33;;;;;;;;;;;17.40;97.30;;;;;;5033616;28;19991;-80
2022/10/11 08:54:03;;;;;;;;;;;17.30;97.60;;;;;;4968781;28;19922;-78
2022/10/11 08:56:31;;;;;;;;;;;17.30;98.00;;;;;;4967885;28;19921;-80
2022/10/11 08:59:14;;;;;;;;;;;17.30;98.20;;;;;;4969091;28;20022;-79
2022/10/11 09:01:45;;;;;;;;;;;17.30;98.40;;;;;;4963301;28;19988;-82
2022/10/11 09:04:16;;;;;;;;;;;17.20;98.60;;;;;;4965795;28;19917;-82
2022/10/11 09:06:50;;;;;;;;;;;17.20;98.60;;;;;;4949004;28;19915;-81
2022/10/11 09:09:23;;;;;;;;;;;17.20;98.80;;;;;;4961957;28;19965;-81
2022/10/11 09:12:16;;;;;;;;;;;17.10;99.30;;;;;;4967954;28;20329;-80
2022/10/11 09:14:54;;;;;;;;;;;17.10;99.50;;;;;;4968238;28;19967;-82
2022/10/11 09:17:38;;;;;;;;;;;17.00;99.90;;;;;;4968388;28;19927;-78
2022/10/11 09:20:23;;;;;;;;;;;17.00;99.90;;;;;;4967521;28;20008;-79
2022/10/11 09:23:10;;;;;;;;;;;17.00;99.90;;;;;;4968664;28;19918;-80
2022/10/11 09:25:40;;;;;;;;;;;16.90;99.90;;;;;;5005843;28;19918;-80
2022/10/11 09:28:36;;;;;;;;;;;16.80;99.90;;;;;;5048086;28;19909;-78
2022/10/11 09:31:02;;;;;;;;;;;16.80;99.90;;;;;;4968918;28;19920;-79
2022/10/11 09:33:34;;;;;;;;;;;16.70;99.90;;;;;;4968111;28;20357;-82
2022/10/11 09:36:02;;;;;;;;;;;16.60;99.90;;;;;;5041446;28;20011;-78
2022/10/11 09:38:34;;;;;;;;;;;16.50;99.90;;;;;;5071105;28;20380;-80
2022/10/11 09:41:16;;;;;;;;;;;16.50;99.90;;;;;;4952345;28;19922;-81
2022/10/11 09:43:50;;;;;;;;;;;16.50;99.90;;;;;;4965925;28;20380;-81
2022/10/11 09:46:19;;;;;;;;;;;16.50;99.90;;;;;;5056105;28;19927;-81
2022/10/11 09:48:46;;;;;;;;;;;16.50;99.90;;;;;;5052261;28;20349;-80
2022/10/11 09:51:24;;;;;;;;;;;16.50;99.90;;;;;;4971772;28;20001;-79
2022/10/11 09:54:01;;;;;;;;;;;16.50;99.90;;;;;;4971517;28;19921;-77
2022/10/11 09:56:29;;;;;;;;;;;16.40;99.90;;;;;;5064172;28;20049;-80
2022/10/11 09:59:16;;;;;;;;;;;16.30;99.90;;;;;;5040694;28;19916;-79
2022/10/11 10:01:43;;;;;;;;;;;16.40;99.90;;;;;;4971344;28;19915;-78
2022/10/11 10:04:11;;;;;;;;;;;16.30;99.90;;;;;;4971349;28;19917;-78
2022/10/11 10:06:38;;;;;;;;;;;16.30;99.90;;;;;;5070358;28;19914;-79
2022/10/11 10:09:34;;;;;;;;;;;16.20;99.90;;;;;;5055005;28;19961;-78
2022/10/11 10:12:10;;;;;;;;;;;16.20;99.90;;;;;;5031732;28;19946;-80
2022/10/11 10:14:37;;;;;;;;;;;16.20;99.90;;;;;;4967156;28;20713;-78
2022/10/11 10:17:05;;;;;;;;;;;16.10;99.90;;;;;;5072803;28;19920;-80
2022/10/11 10:19:36;;;;;;;;;;;16.10;99.90;;;;;;5037784;28;19914;-80
2022/10/11 10:22:03;;;;;;;;;;;16.10;99.90;;;;;;4971220;28;19922;-80
2022/10/11 10:24:32;;;;;;;;;;;16.10;99.90;;;;;;4979548;28;19971;-79
2022/10/11 10:27:05;;;;;;;;;;;16.10;99.90;;;;;;4965158;28;19961;-80
2022/10/11 10:29:32;;;;;;;;;;;16.00;99.90;;;;;;4971635;28;20009;-79
2022/10/11 10:32:02;;;;;;;;;;;16.00;99.90;;;;;;4971324;28;19922;-78
2022/10/11 10:34:36;;;;;;;;;;;16.00;99.90;;;;;;4978400;28;19924;-79
2022/10/11 10:37:17;;;;;;;;;;;15.90;99.90;;;;;;5072305;28;19909;-77
2022/10/11 10:39:49;;;;;;;;;;;16.00;99.90;;;;;;4983547;28;20274;-79
2022/10/11 10:42:19;;;;;;;;;;;16.00;99.90;;;;;;4970722;28;20359;-77
2022/10/11 10:45:04;;;;;;;;;;;15.90;99.90;;;;;;4970676;28;19914;-75
2022/10/11 10:47:41;;;;;;;;;;;15.90;99.90;;;;;;4969746;28;19964;-80
2022/10/11 10:50:17;;;;;;;;;;;15.90;99.90;;;;;;4971171;28;19917;-77
2022/10/11 10:52:43;;;;;;;;;;;15.90;99.90;;;;;;4970785;28;19918;-81
2022/10/11 10:55:34;;;;;;;;;;;15.80;99.90;;;;;;5007788;28;20018;-78
2022/10/11 10:58:05;;;;;;;;;;;15.80;99.90;;;;;;5037990;28;19914;-77
2022/10/11 11:00:54;;;;;;;;;;;15.90;99.90;;;;;;4952761;28;20403;-78
2022/10/11 11:03:30;;;;;;;;;;;15.90;99.90;;;;;;4963576;28;19949;-75
2022/10/11 11:06:01;;;;;;;;;;;15.80;99.90;;;;;;5039858;28;19908;-80
2022/10/11 11:08:28;;;;;;;;;;;15.90;99.90;;;;;;5044211;28;19918;-78
2022/10/11 11:10:58;;;;;;;;;;;15.90;99.90;;;;;;4970512;28;19958;-81
2022/10/11 11:13:40;;;;;;;;;;;16.00;99.90;;;;;;4970500;28;19921;-81
2022/10/11 11:16:18;;;;;;;;;;;16.00;99.90;;;;;;4993008;28;19918;-80
2022/10/11 11:18:55;;;;;;;;;;;16.10;99.90;;;;;;5036375;28;19927;-75
2022/10/11 11:21:30;;;;;;;;;;;16.10;99.90;;;;;;4970873;28;19911;-80
2022/10/11 11:24:09;;;;;;;;;;;16.20;99.90;;;;;;4970413;28;19955;-80
2022/10/11 11:26:35;;;;;;;;;;;16.20;99.90;;;;;;5067525;28;20399;-80
2022/10/11 11:29:31;;;;;;;;;;;16.30;99.90;;;;;;5036937;28;19935;-81
2022/10/11 11:32:07;;;;;;;;;;;16.30;99.90;;;;;;4970225;28;20432;-80
2022/10/11 11:34:35;;;;;;;;;;;16.30;99.90;;;;;;4981237;28;19975;-80
2022/10/11 11:37:25;;;;;;;;;;;16.30;99.90;;;;;;5022163;28;19910;-81
2022/10/11 11:39:55;;;;;;;;;;;16.40;99.90;;;;;;4969773;28;20047;-81
2022/10/11 11:42:25;;;;;;;;;;;16.40;99.90;;;;;;4970032;28;19917;-80
2022/10/11 11:44:52;;;;;;;;;;;16.40;99.90;;;;;;4993785;28;19913;-79
2022/10/11 11:47:24;;;;;;;;;;;16.40;99.90;;;;;;5071280;28;19963;-79
2022/10/11 11:50:13;;;;;;;;;;;16.50;99.90;;;;;;4951135;28;19922;-75
2022/10/11 11:52:43;;;;;;;;;;;16.40;99.90;;;;;;4962757;28;19910;-81
2022/10/11 11:55:16;;;;;;;;;;;16.40;99.90;;;;;;5029010;28;20397;-81
2022/10/11 11:57:49;;;;;;;;;;;16.30;99.90;;;;;;4970261;28;20032;-80
2022/10/11 12:00:20;;;;;;;;;;;16.40;99.90;;;;;;5069119;28;19993;-79
2022/10/11 12:03:01;;;;;;;;;;;16.40;99.90;;;;;;4969665;28;19933;-80
2022/10/11 12:05:30;;;;;;;;;;;16.40;99.90;;;;;;5018879;28;19959;-81
2022/10/11 12:08:01;;;;;;;;;;;16.40;99.90;;;;;;5071443;28;20000;-81
2022/10/11 12:10:33;;;;;;;;;;;16.40;99.90;;;;;;5071256;28;19987;-81
2022/10/11 12:13:05;;;;;;;;;;;16.40;99.90;;;;;;5026791;28;20005;-79
2022/10/11 12:15:32;;;;;;;;;;;16.40;99.90;;;;;;5012799;28;19956;-80
2022/10/11 12:18:01;;;;;;;;;;;16.40;99.90;;;;;;5071010;28;20361;-80
2022/10/11 12:20:36;;;;;;;;;;;16.40;99.90;;;;;;5070992;28;19908;-79
2022/10/11 12:23:18;;;;;;;;;;;16.40;99.90;;;;;;5025021;28;19937;-77
2022/10/11 12:25:45;;;;;;;;;;;16.40;99.90;;;;;;5052702;28;19909;-79
2022/10/11 12:28:30;;;;;;;;;;;16.40;99.90;;;;;;4979704;28;19921;-80
2022/10/11 12:31:04;;;;;;;;;;;16.40;99.90;;;;;;4969622;28;20425;-79
2022/10/11 12:33:31;;;;;;;;;;;16.40;99.90;;;;;;4969258;28;20022;-81
2022/10/11 12:36:24;;;;;;;;;;;16.40;99.90;;;;;;5039459;28;19915;-81
2022/10/11 12:39:08;;;;;;;;;;;16.40;99.90;;;;;;5066735;28;19965;-78
2022/10/11 12:41:37;;;;;;;;;;;16.50;99.90;;;;;;5071221;28;19952;-81
2022/10/11 12:44:27;;;;;;;;;;;16.50;99.90;;;;;;4984185;28;19921;-79
2022/10/11 12:46:53;;;;;;;;;;;16.50;99.90;;;;;;5057751;28;19908;-80
2022/10/11 12:49:36;;;;;;;;;;;16.40;99.90;;;;;;5000482;28;20471;-80
2022/10/11 12:52:05;;;;;;;;;;;16.40;99.90;;;;;;4968513;28;19911;-80
2022/10/11 12:54:38;;;;;;;;;;;16.50;99.90;;;;;;4961236;28;20290;-79
2022/10/11 12:57:10;;;;;;;;;;;16.40;99.90;;;;;;5057532;28;19914;-78
2022/10/11 12:59:39;;;;;;;;;;;16.40;99.90;;;;;;4950024;28;19911;-75
2022/10/11 13:02:26;;;;;;;;;;;16.30;99.90;;;;;;4950199;28;19910;-75
2022/10/11 13:05:04;;;;;;;;;;;16.30;99.90;;;;;;4993389;28;19984;-80
2022/10/11 13:07:30;;;;;;;;;;;16.30;99.90;;;;;;4970508;28;20460;-77
2022/10/11 13:09:57;;;;;;;;;;;16.30;99.90;;;;;;4968964;28;19910;-80
2022/10/11 13:12:25;;;;;;;;;;;16.30;99.90;;;;;;4971459;28;19911;-80
2022/10/11 13:15:05;;;;;;;;;;;16.20;99.90;;;;;;4996684;28;19962;-79
2022/10/11 13:17:36;;;;;;;;;;;16.20;99.90;;;;;;5015660;28;19918;-80
2022/10/11 13:20:32;;;;;;;;;;;16.20;99.90;;;;;;4971949;28;20022;-75
2022/10/11 13:22:59;;;;;;;;;;;16.20;99.90;;;;;;4971845;28;19937;-78
2022/10/11 13:25:27;;;;;;;;;;;16.10;99.90;;;;;;5056129;28;19909;-76
2022/10/11 13:27:54;;;;;;;;;;;16.10;99.90;;;;;;5043561;28;19937;-79
2022/10/11 13:30:28;;;;;;;;;;;16.00;99.90;;;;;;4972484;28;19917;-77
2022/10/11 13:32:55;;;;;;;;;;;16.00;99.90;;;;;;4972260;28;19914;-78
2022/10/11 13:35:29;;;;;;;;;;;15.90;99.90;;;;;;5017365;28;19924;-81
2022/10/11 13:37:56;;;;;;;;;;;15.90;99.90;;;;;;5059823;28;20292;-81
2022/10/11 13:40:23;;;;;;;;;;;15.90;99.90;;;;;;4972168;28;19953;-77
2022/10/11 13:42:51;;;;;;;;;;;15.90;99.90;;;;;;4972057;28;19922;-78
2022/10/11 13:45:20;;;;;;;;;;;15.80;99.90;;;;;;4990362;28;19941;-77
2022/10/11 13:47:47;;;;;;;;;;;15.80;99.90;;;;;;4971668;28;19920;-79
2022/10/11 13:50:16;;;;;;;;;;;15.70;99.90;;;;;;4971902;28;19956;-75
2022/10/11 13:52:52;;;;;;;;;;;15.70;99.90;;;;;;4971725;28;19914;-76
2022/10/11 13:55:27;;;;;;;;;;;15.60;99.90;;;;;;4971747;28;20013;-80
2022/10/11 13:57:53;;;;;;;;;;;15.60;99.90;;;;;;4971609;28;20298;-77
2022/10/11 14:00:21;;;;;;;;;;;15.50;99.90;;;;;;4971755;28;19988;-80
2022/10/11 14:02:50;;;;;;;;;;;15.50;99.90;;;;;;4971608;28;20068;-81
2022/10/11 14:05:27;;;;;;;;;;;15.50;99.90;;;;;;5071379;28;19918;-82
2022/10/11 14:07:54;;;;;;;;;;;15.40;99.90;;;;;;4971421;28;20009;-80
2022/10/11 14:10:21;;;;;;;;;;;15.40;99.90;;;;;;4971447;28;19910;-79
2022/10/11 14:13:01;;;;;;;;;;;15.40;99.90;;;;;;4971334;28;20294;-81
2022/10/11 14:15:29;;;;;;;;;;;15.30;99.90;;;;;;5020243;28;19920;-77
2022/10/11 14:17:56;;;;;;;;;;;15.20;99.90;;;;;;5009138;28;20374;-76
2022/10/11 14:20:24;;;;;;;;;;;15.20;99.90;;;;;;4971634;28;19910;-77
2022/10/11 14:22:51;;;;;;;;;;;15.10;99.90;;;;;;4970497;28;19932;-78
2022/10/11 14:25:18;;;;;;;;;;;15.10;99.90;;;;;;5014237;28;19915;-77
2022/10/11 14:27:45;;;;;;;;;;;15.10;99.90;;;;;;5003134;28;20032;-80
2022/10/11 14:30:17;;;;;;;;;;;15.00;99.90;;;;;;4971248;28;20332;-79
2022/10/11 14:32:45;;;;;;;;;;;14.90;99.90;;;;;;4970975;28;19914;-79
2022/10/11 14:35:16;;;;;;;;;;;14.90;99.90;;;;;;5008569;28;20354;-74